sensor_id;sensor_type;location;lat;lon;timestamp;P1;durP1;ratioP1;P2;durP2;ratioP2
8737;SDS011;4405;49.272;8.590;2023-12-20T00:00:05;7.60;;;6.80;;
8737;SDS011;4405;49.272;8.590;2023-12-20T00:02:32;8.40;;;6.67;;
8737;SDS011;4405;49.272;8.590;2023-12-20T00:04:59;6.93;;;6.23;;
8737;SDS011;4405;49.272;8.590;2023-12-20T00:07:26;6.37;;;5.77;;
8737;SDS011;4405;49.272;8.590;2023-12-20T00:09:52;7.10;;;6.30;;
8737;SDS011;4405;49.272;8.590;2023-12-20T00:12:18;7.70;;;5.73;;
8737;SDS011;4405;49.272;8.590;2023-12-20T00:14:45;8.90;;;6.43;;
8737;SDS011;4405;49.272;8.590;2023-12-20T00:17:11;8.07;;;6.17;;
8737;SDS011;4405;49.272;8.590;2023-12-20T00:19:37;7.00;;;6.27;;
8737;SDS011;4405;49.272;8.590;2023-12-20T00:22:05;8.13;;;5.97;;
8737;SDS011;4405;49.272;8.590;2023-12-20T00:24:31;7.87;;;6.07;;
8737;SDS011;4405;49.272;8.590;2023-12-20T00:26:58;8.33;;;6.13;;
8737;SDS011;4405;49.272;8.590;2023-12-20T00:29:24;7.63;;;5.97;;
8737;SDS011;4405;49.272;8.590;2023-12-20T00:31:51;6.67;;;5.87;;
8737;SDS011;4405;49.272;8.590;2023-12-20T00:34:17;6.67;;;6.03;;
8737;SDS011;4405;49.272;8.590;2023-12-20T00:36:43;6.80;;;5.80;;
8737;SDS011;4405;49.272;8.590;2023-12-20T00:39:11;7.77;;;6.13;;
8737;SDS011;4405;49.272;8.590;2023-12-20T00:41:37;6.40;;;5.80;;
8737;SDS011;4405;49.272;8.590;2023-12-20T00:44:04;7.00;;;6.30;;
8737;SDS011;4405;49.272;8.590;2023-12-20T00:46:30;6.30;;;5.70;;
8737;SDS011;4405;49.272;8.590;2023-12-20T00:48:56;6.47;;;5.83;;
8737;SDS011;4405;49.272;8.590;2023-12-20T00:51:23;6.83;;;5.83;;
8737;SDS011;4405;49.272;8.590;2023-12-20T00:53:49;6.00;;;5.50;;
8737;SDS011;4405;49.272;8.590;2023-12-20T00:56:21;7.60;;;5.80;;
8737;SDS011;4405;49.272;8.590;2023-12-20T00:58:47;6.77;;;5.63;;
8737;SDS011;4405;49.272;8.590;2023-12-20T01:01:13;6.90;;;6.17;;
8737;SDS011;4405;49.272;8.590;2023-12-20T01:03:40;6.90;;;6.20;;
8737;SDS011;4405;49.272;8.590;2023-12-20T01:06:06;7.63;;;6.17;;
8737;SDS011;4405;49.272;8.590;2023-12-20T01:08:33;7.90;;;6.40;;
8737;SDS011;4405;49.272;8.590;2023-12-20T01:11:00;8.07;;;6.60;;
8737;SDS011;4405;49.272;8.590;2023-12-20T01:13:27;7.63;;;6.07;;
8737;SDS011;4405;49.272;8.590;2023-12-20T01:15:54;6.00;;;5.40;;
8737;SDS011;4405;49.272;8.590;2023-12-20T01:18:21;6.63;;;5.73;;
8737;SDS011;4405;49.272;8.590;2023-12-20T01:20:47;6.37;;;5.60;;
8737;SDS011;4405;49.272;8.590;2023-12-20T01:23:13;7.53;;;6.13;;
8737;SDS011;4405;49.272;8.590;2023-12-20T01:25:40;6.07;;;5.30;;
8737;SDS011;4405;49.272;8.590;2023-12-20T01:28:06;6.27;;;5.17;;
8737;SDS011;4405;49.272;8.590;2023-12-20T01:30:34;6.20;;;5.60;;
8737;SDS011;4405;49.272;8.590;2023-12-20T01:33:00;6.13;;;5.00;;
8737;SDS011;4405;49.272;8.590;2023-12-20T01:35:26;5.87;;;5.30;;
8737;SDS011;4405;49.272;8.590;2023-12-20T01:37:53;7.03;;;5.23;;
8737;SDS011;4405;49.272;8.590;2023-12-20T01:40:21;5.30;;;4.53;;
8737;SDS011;4405;49.272;8.590;2023-12-20T01:42:48;5.00;;;4.60;;
8737;SDS011;4405;49.272;8.590;2023-12-20T01:45:23;5.00;;;4.60;;
8737;SDS011;4405;49.272;8.590;2023-12-20T01:47:51;5.03;;;4.47;;
8737;SDS011;4405;49.272;8.590;2023-12-20T01:50:17;5.10;;;4.70;;
8737;SDS011;4405;49.272;8.590;2023-12-20T01:52:44;4.70;;;4.30;;
8737;SDS011;4405;49.272;8.590;2023-12-20T01:55:11;4.83;;;4.27;;
8737;SDS011;4405;49.272;8.590;2023-12-20T01:57:39;4.47;;;4.07;;
8737;SDS011;4405;49.272;8.590;2023-12-20T02:00:06;4.40;;;4.00;;
8737;SDS011;4405;49.272;8.590;2023-12-20T02:02:34;4.10;;;3.80;;
8737;SDS011;4405;49.272;8.590;2023-12-20T02:05:03;4.23;;;3.90;;
8737;SDS011;4405;49.272;8.590;2023-12-20T02:07:29;5.07;;;4.20;;
8737;SDS011;4405;49.272;8.590;2023-12-20T02:09:56;4.30;;;3.90;;
8737;SDS011;4405;49.272;8.590;2023-12-20T02:12:22;4.87;;;4.00;;
8737;SDS011;4405;49.272;8.590;2023-12-20T02:14:49;4.37;;;4.03;;
8737;SDS011;4405;49.272;8.590;2023-12-20T02:17:15;4.50;;;4.10;;
8737;SDS011;4405;49.272;8.590;2023-12-20T02:19:42;3.87;;;3.60;;
8737;SDS011;4405;49.272;8.590;2023-12-20T02:22:10;4.20;;;3.90;;
8737;SDS011;4405;49.272;8.590;2023-12-20T02:24:36;4.07;;;3.77;;
8737;SDS011;4405;49.272;8.590;2023-12-20T02:27:03;4.27;;;3.87;;
8737;SDS011;4405;49.272;8.590;2023-12-20T02:29:31;4.10;;;3.80;;
8737;SDS011;4405;49.272;8.590;2023-12-20T02:31:58;4.03;;;3.73;;
8737;SDS011;4405;49.272;8.590;2023-12-20T02:34:24;4.03;;;3.73;;
8737;SDS011;4405;49.272;8.590;2023-12-20T02:36:50;4.03;;;3.73;;
8737;SDS011;4405;49.272;8.590;2023-12-20T02:39:18;4.80;;;4.00;;
8737;SDS011;4405;49.272;8.590;2023-12-20T02:41:45;3.77;;;3.47;;
8737;SDS011;4405;49.272;8.590;2023-12-20T02:44:11;4.23;;;3.57;;
8737;SDS011;4405;49.272;8.590;2023-12-20T02:46:37;3.70;;;3.40;;
8737;SDS011;4405;49.272;8.590;2023-12-20T02:49:04;3.73;;;3.43;;
8737;SDS011;4405;49.272;8.590;2023-12-20T02:51:30;3.93;;;3.60;;
8737;SDS011;4405;49.272;8.590;2023-12-20T02:53:57;3.60;;;3.30;;
8737;SDS011;4405;49.272;8.590;2023-12-20T02:56:25;4.07;;;3.57;;
8737;SDS011;4405;49.272;8.590;2023-12-20T02:58:51;3.73;;;3.53;;
8737;SDS011;4405;49.272;8.590;2023-12-20T03:01:18;3.80;;;3.50;;
8737;SDS011;4405;49.272;8.590;2023-12-20T03:03:44;4.13;;;3.73;;
8737;SDS011;4405;49.272;8.590;2023-12-20T03:06:11;3.63;;;3.33;;
8737;SDS011;4405;49.272;8.590;2023-12-20T03:08:37;3.70;;;3.40;;
8737;SDS011;4405;49.272;8.590;2023-12-20T03:11:06;4.33;;;3.47;;
8737;SDS011;4405;49.272;8.590;2023-12-20T03:13:33;3.97;;;3.67;;
8737;SDS011;4405;49.272;8.590;2023-12-20T03:16:00;3.90;;;3.53;;
8737;SDS011;4405;49.272;8.590;2023-12-20T03:18:26;4.10;;;3.77;;
8737;SDS011;4405;49.272;8.590;2023-12-20T03:20:53;3.60;;;3.40;;
8737;SDS011;4405;49.272;8.590;2023-12-20T03:23:19;3.57;;;3.27;;
8737;SDS011;4405;49.272;8.590;2023-12-20T03:25:46;3.33;;;3.13;;
8737;SDS011;4405;49.272;8.590;2023-12-20T03:28:14;3.43;;;3.23;;
8737;SDS011;4405;49.272;8.590;2023-12-20T03:30:41;4.30;;;3.60;;
8737;SDS011;4405;49.272;8.590;2023-12-20T03:33:08;3.90;;;3.40;;
8737;SDS011;4405;49.272;8.590;2023-12-20T03:35:34;3.60;;;3.40;;
8737;SDS011;4405;49.272;8.590;2023-12-20T03:38:00;3.50;;;3.10;;
8737;SDS011;4405;49.272;8.590;2023-12-20T03:40:27;3.63;;;3.33;;
8737;SDS011;4405;49.272;8.590;2023-12-20T03:42:53;3.30;;;3.10;;
8737;SDS011;4405;49.272;8.590;2023-12-20T03:45:19;3.53;;;3.23;;
8737;SDS011;4405;49.272;8.590;2023-12-20T03:47:48;3.47;;;3.27;;
8737;SDS011;4405;49.272;8.590;2023-12-20T03:50:14;3.40;;;3.20;;
8737;SDS011;4405;49.272;8.590;2023-12-20T03:52:41;3.23;;;3.03;;
8737;SDS011;4405;49.272;8.590;2023-12-20T03:55:07;3.37;;;3.17;;
8737;SDS011;4405;49.272;8.590;2023-12-20T03:57:33;3.33;;;3.10;;
8737;SDS011;4405;49.272;8.590;2023-12-20T04:00:00;3.10;;;2.90;;
8737;SDS011;4405;49.272;8.590;2023-12-20T04:02:26;3.73;;;3.43;;
8737;SDS011;4405;49.272;8.590;2023-12-20T04:04:54;3.07;;;2.90;;
8737;SDS011;4405;49.272;8.590;2023-12-20T04:07:20;3.33;;;3.03;;
8737;SDS011;4405;49.272;8.590;2023-12-20T04:09:46;3.20;;;3.00;;
8737;SDS011;4405;49.272;8.590;2023-12-20T04:12:13;3.27;;;3.07;;
8737;SDS011;4405;49.272;8.590;2023-12-20T04:14:39;3.20;;;2.90;;
8737;SDS011;4405;49.272;8.590;2023-12-20T04:17:05;3.27;;;3.07;;
8737;SDS011;4405;49.272;8.590;2023-12-20T04:19:32;2.93;;;2.73;;
8737;SDS011;4405;49.272;8.590;2023-12-20T04:21:59;3.40;;;3.10;;
8737;SDS011;4405;49.272;8.590;2023-12-20T04:24:26;3.50;;;3.20;;
8737;SDS011;4405;49.272;8.590;2023-12-20T04:26:52;3.53;;;3.30;;
8737;SDS011;4405;49.272;8.590;2023-12-20T04:29:18;3.20;;;2.90;;
8737;SDS011;4405;49.272;8.590;2023-12-20T04:31:45;3.27;;;3.07;;
8737;SDS011;4405;49.272;8.590;2023-12-20T04:34:11;2.90;;;2.70;;
8737;SDS011;4405;49.272;8.590;2023-12-20T04:36:37;2.77;;;2.60;;
8737;SDS011;4405;49.272;8.590;2023-12-20T04:39:05;3.07;;;2.87;;
8737;SDS011;4405;49.272;8.590;2023-12-20T04:41:32;2.93;;;2.80;;
8737;SDS011;4405;49.272;8.590;2023-12-20T04:43:58;3.07;;;2.83;;
8737;SDS011;4405;49.272;8.590;2023-12-20T04:46:25;3.13;;;2.93;;
8737;SDS011;4405;49.272;8.590;2023-12-20T04:48:51;3.07;;;2.93;;
8737;SDS011;4405;49.272;8.590;2023-12-20T04:51:18;2.80;;;2.60;;
8737;SDS011;4405;49.272;8.590;2023-12-20T04:53:44;2.87;;;2.77;;
8737;SDS011;4405;49.272;8.590;2023-12-20T04:56:12;2.97;;;2.60;;
8737;SDS011;4405;49.272;8.590;2023-12-20T04:58:38;2.93;;;2.73;;
8737;SDS011;4405;49.272;8.590;2023-12-20T05:01:05;3.00;;;2.80;;
8737;SDS011;4405;49.272;8.590;2023-12-20T05:03:31;3.10;;;2.90;;
8737;SDS011;4405;49.272;8.590;2023-12-20T05:05:58;2.50;;;2.40;;
8737;SDS011;4405;49.272;8.590;2023-12-20T05:08:24;2.63;;;2.43;;
8737;SDS011;4405;49.272;8.590;2023-12-20T05:10:51;2.50;;;2.40;;
8737;SDS011;4405;49.272;8.590;2023-12-20T05:13:18;2.37;;;2.27;;
8737;SDS011;4405;49.272;8.590;2023-12-20T05:15:45;2.23;;;2.13;;
8737;SDS011;4405;49.272;8.590;2023-12-20T05:18:11;2.57;;;2.40;;
8737;SDS011;4405;49.272;8.590;2023-12-20T05:20:37;2.17;;;2.07;;
8737;SDS011;4405;49.272;8.590;2023-12-20T05:23:04;2.10;;;2.00;;
8737;SDS011;4405;49.272;8.590;2023-12-20T05:25:30;2.17;;;2.07;;
8737;SDS011;4405;49.272;8.590;2023-12-20T05:27:57;2.20;;;2.10;;
8737;SDS011;4405;49.272;8.590;2023-12-20T05:30:24;2.50;;;2.40;;
8737;SDS011;4405;49.272;8.590;2023-12-20T05:32:51;2.30;;;2.20;;
8737;SDS011;4405;49.272;8.590;2023-12-20T05:35:18;2.20;;;2.10;;
8737;SDS011;4405;49.272;8.590;2023-12-20T05:37:44;2.57;;;2.47;;
8737;SDS011;4405;49.272;8.590;2023-12-20T05:40:10;2.57;;;2.37;;
8737;SDS011;4405;49.272;8.590;2023-12-20T05:42:37;2.40;;;2.30;;
8737;SDS011;4405;49.272;8.590;2023-12-20T05:45:04;2.57;;;2.20;;
8737;SDS011;4405;49.272;8.590;2023-12-20T05:47:32;2.53;;;2.43;;
8737;SDS011;4405;49.272;8.590;2023-12-20T05:49:58;2.47;;;2.37;;
8737;SDS011;4405;49.272;8.590;2023-12-20T05:52:24;2.50;;;2.40;;
8737;SDS011;4405;49.272;8.590;2023-12-20T05:54:51;2.70;;;2.50;;
8737;SDS011;4405;49.272;8.590;2023-12-20T05:57:17;2.80;;;2.60;;
8737;SDS011;4405;49.272;8.590;2023-12-20T05:59:43;2.80;;;2.70;;
8737;SDS011;4405;49.272;8.590;2023-12-20T06:02:10;3.37;;;3.17;;
8737;SDS011;4405;49.272;8.590;2023-12-20T06:04:37;2.90;;;2.80;;
8737;SDS011;4405;49.272;8.590;2023-12-20T06:07:07;3.20;;;3.10;;
8737;SDS011;4405;49.272;8.590;2023-12-20T06:09:34;3.23;;;2.97;;
8737;SDS011;4405;49.272;8.590;2023-12-20T06:12:01;3.50;;;3.20;;
8737;SDS011;4405;49.272;8.590;2023-12-20T06:14:27;3.07;;;2.97;;
8737;SDS011;4405;49.272;8.590;2023-12-20T06:16:53;3.27;;;3.07;;
8737;SDS011;4405;49.272;8.590;2023-12-20T06:19:19;3.83;;;3.63;;
8737;SDS011;4405;49.272;8.590;2023-12-20T06:21:47;3.50;;;3.30;;
8737;SDS011;4405;49.272;8.590;2023-12-20T06:24:14;4.07;;;3.87;;
8737;SDS011;4405;49.272;8.590;2023-12-20T06:26:40;4.10;;;3.80;;
8737;SDS011;4405;49.272;8.590;2023-12-20T06:29:06;3.77;;;3.57;;
8737;SDS011;4405;49.272;8.590;2023-12-20T06:31:33;4.80;;;4.50;;
8737;SDS011;4405;49.272;8.590;2023-12-20T06:33:59;4.73;;;4.33;;
8737;SDS011;4405;49.272;8.590;2023-12-20T06:36:26;4.87;;;4.47;;
8737;SDS011;4405;49.272;8.590;2023-12-20T06:38:54;5.10;;;4.80;;
8737;SDS011;4405;49.272;8.590;2023-12-20T06:41:20;6.07;;;5.47;;
8737;SDS011;4405;49.272;8.590;2023-12-20T06:43:49;5.13;;;4.80;;
8737;SDS011;4405;49.272;8.590;2023-12-20T06:46:15;5.77;;;5.27;;
8737;SDS011;4405;49.272;8.590;2023-12-20T06:48:42;5.17;;;4.87;;
8737;SDS011;4405;49.272;8.590;2023-12-20T06:51:11;5.60;;;5.20;;
8737;SDS011;4405;49.272;8.590;2023-12-20T06:53:37;6.07;;;5.47;;
8737;SDS011;4405;49.272;8.590;2023-12-20T06:56:05;7.30;;;6.70;;
8737;SDS011;4405;49.272;8.590;2023-12-20T06:58:32;8.73;;;6.63;;
8737;SDS011;4405;49.272;8.590;2023-12-20T07:00:58;5.97;;;5.63;;
8737;SDS011;4405;49.272;8.590;2023-12-20T07:03:25;5.63;;;5.23;;
8737;SDS011;4405;49.272;8.590;2023-12-20T07:05:51;4.23;;;4.00;;
8737;SDS011;4405;49.272;8.590;2023-12-20T07:08:18;5.17;;;4.77;;
8737;SDS011;4405;49.272;8.590;2023-12-20T07:10:44;4.80;;;4.50;;
8737;SDS011;4405;49.272;8.590;2023-12-20T07:13:12;5.07;;;4.67;;
8737;SDS011;4405;49.272;8.590;2023-12-20T07:15:39;4.70;;;4.30;;
8737;SDS011;4405;49.272;8.590;2023-12-20T07:18:05;4.53;;;4.33;;
8737;SDS011;4405;49.272;8.590;2023-12-20T07:20:32;4.43;;;4.13;;
8737;SDS011;4405;49.272;8.590;2023-12-20T07:22:59;4.27;;;4.00;;
8737;SDS011;4405;49.272;8.590;2023-12-20T07:25:25;3.70;;;3.50;;
8737;SDS011;4405;49.272;8.590;2023-12-20T07:27:52;4.57;;;4.27;;
8737;SDS011;4405;49.272;8.590;2023-12-20T07:30:19;5.07;;;4.77;;
8737;SDS011;4405;49.272;8.590;2023-12-20T07:32:46;5.00;;;4.70;;
8737;SDS011;4405;49.272;8.590;2023-12-20T07:35:12;6.10;;;5.70;;
8737;SDS011;4405;49.272;8.590;2023-12-20T07:37:39;5.10;;;4.80;;
8737;SDS011;4405;49.272;8.590;2023-12-20T07:40:06;5.47;;;5.07;;
8737;SDS011;4405;49.272;8.590;2023-12-20T07:42:32;5.97;;;5.57;;
8737;SDS011;4405;49.272;8.590;2023-12-20T07:44:59;5.73;;;5.23;;
8737;SDS011;4405;49.272;8.590;2023-12-20T07:47:26;5.67;;;5.27;;
8737;SDS011;4405;49.272;8.590;2023-12-20T07:49:53;6.33;;;5.83;;
8737;SDS011;4405;49.272;8.590;2023-12-20T07:52:19;6.00;;;5.50;;
8737;SDS011;4405;49.272;8.590;2023-12-20T07:54:47;5.77;;;5.17;;
8737;SDS011;4405;49.272;8.590;2023-12-20T07:57:13;5.20;;;4.80;;
8737;SDS011;4405;49.272;8.590;2023-12-20T07:59:39;4.93;;;4.63;;
8737;SDS011;4405;49.272;8.590;2023-12-20T08:02:06;5.50;;;5.10;;
8737;SDS011;4405;49.272;8.590;2023-12-20T08:04:34;4.90;;;4.50;;
8737;SDS011;4405;49.272;8.590;2023-12-20T08:07:00;4.50;;;4.10;;
8737;SDS011;4405;49.272;8.590;2023-12-20T08:09:27;4.93;;;4.53;;
8737;SDS011;4405;49.272;8.590;2023-12-20T08:11:53;4.80;;;4.50;;
8737;SDS011;4405;49.272;8.590;2023-12-20T08:14:19;5.10;;;4.60;;
8737;SDS011;4405;49.272;8.590;2023-12-20T08:16:46;5.37;;;4.97;;
8737;SDS011;4405;49.272;8.590;2023-12-20T08:19:12;8.97;;;5.90;;
8737;SDS011;4405;49.272;8.590;2023-12-20T08:21:40;5.90;;;5.40;;
8737;SDS011;4405;49.272;8.590;2023-12-20T08:24:06;6.77;;;6.17;;
8737;SDS011;4405;49.272;8.590;2023-12-20T08:26:33;6.07;;;5.47;;
8737;SDS011;4405;49.272;8.590;2023-12-20T08:28:59;6.23;;;4.80;;
8737;SDS011;4405;49.272;8.590;2023-12-20T08:31:26;4.70;;;4.30;;
8737;SDS011;4405;49.272;8.590;2023-12-20T08:33:53;5.73;;;3.23;;
8737;SDS011;4405;49.272;8.590;2023-12-20T08:36:19;2.80;;;2.70;;
8737;SDS011;4405;49.272;8.590;2023-12-20T08:38:47;2.97;;;2.77;;
8737;SDS011;4405;49.272;8.590;2023-12-20T08:41:14;2.80;;;2.60;;
8737;SDS011;4405;49.272;8.590;2023-12-20T08:43:39;2.70;;;2.27;;
8737;SDS011;4405;49.272;8.590;2023-12-20T08:46:06;2.93;;;2.73;;
8737;SDS011;4405;49.272;8.590;2023-12-20T08:48:34;2.20;;;2.00;;
8737;SDS011;4405;49.272;8.590;2023-12-20T08:51:00;3.73;;;2.47;;
8737;SDS011;4405;49.272;8.590;2023-12-20T08:53:27;5.20;;;2.30;;
8737;SDS011;4405;49.272;8.590;2023-12-20T08:55:54;3.23;;;2.10;;
8737;SDS011;4405;49.272;8.590;2023-12-20T08:58:23;3.17;;;2.10;;
8737;SDS011;4405;49.272;8.590;2023-12-20T09:00:49;2.50;;;1.93;;
8737;SDS011;4405;49.272;8.590;2023-12-20T09:03:15;2.13;;;1.77;;
8737;SDS011;4405;49.272;8.590;2023-12-20T09:05:42;2.37;;;1.63;;
8737;SDS011;4405;49.272;8.590;2023-12-20T09:08:08;3.90;;;1.60;;
8737;SDS011;4405;49.272;8.590;2023-12-20T09:10:35;2.23;;;1.60;;
8737;SDS011;4405;49.272;8.590;2023-12-20T09:13:03;3.00;;;1.60;;
8737;SDS011;4405;49.272;8.590;2023-12-20T09:15:29;4.90;;;1.67;;
8737;SDS011;4405;49.272;8.590;2023-12-20T09:17:56;2.83;;;1.60;;
8737;SDS011;4405;49.272;8.590;2023-12-20T09:20:23;2.67;;;1.60;;
8737;SDS011;4405;49.272;8.590;2023-12-20T09:22:50;2.50;;;1.67;;
8737;SDS011;4405;49.272;8.590;2023-12-20T09:25:16;3.63;;;1.60;;
8737;SDS011;4405;49.272;8.590;2023-12-20T09:27:42;3.13;;;1.73;;
8737;SDS011;4405;49.272;8.590;2023-12-20T09:30:10;1.67;;;1.57;;
8737;SDS011;4405;49.272;8.590;2023-12-20T09:32:37;4.73;;;1.77;;
8737;SDS011;4405;49.272;8.590;2023-12-20T09:35:04;1.93;;;1.43;;
8737;SDS011;4405;49.272;8.590;2023-12-20T09:37:31;3.70;;;1.40;;
8737;SDS011;4405;49.272;8.590;2023-12-20T09:39:58;3.47;;;1.50;;
8737;SDS011;4405;49.272;8.590;2023-12-20T09:42:25;4.23;;;1.50;;
8737;SDS011;4405;49.272;8.590;2023-12-20T09:44:55;6.83;;;1.53;;
8737;SDS011;4405;49.272;8.590;2023-12-20T09:47:25;2.13;;;1.33;;
8737;SDS011;4405;49.272;8.590;2023-12-20T09:49:51;3.43;;;1.40;;
8737;SDS011;4405;49.272;8.590;2023-12-20T09:52:17;7.27;;;1.77;;
8737;SDS011;4405;49.272;8.590;2023-12-20T09:54:44;4.87;;;1.67;;
8737;SDS011;4405;49.272;8.590;2023-12-20T09:57:11;3.93;;;1.80;;
8737;SDS011;4405;49.272;8.590;2023-12-20T09:59:38;4.60;;;1.47;;
8737;SDS011;4405;49.272;8.590;2023-12-20T10:02:04;2.60;;;1.43;;
8737;SDS011;4405;49.272;8.590;2023-12-20T10:04:36;3.57;;;1.77;;
8737;SDS011;4405;49.272;8.590;2023-12-20T10:07:03;2.57;;;1.30;;
8737;SDS011;4405;49.272;8.590;2023-12-20T10:09:30;2.97;;;1.70;;
8737;SDS011;4405;49.272;8.590;2023-12-20T10:11:57;6.17;;;1.80;;
8737;SDS011;4405;49.272;8.590;2023-12-20T10:14:23;7.53;;;1.60;;
8737;SDS011;4405;49.272;8.590;2023-12-20T10:16:50;4.30;;;1.60;;
8737;SDS011;4405;49.272;8.590;2023-12-20T10:19:17;3.20;;;1.60;;
8737;SDS011;4405;49.272;8.590;2023-12-20T10:21:45;4.20;;;1.50;;
8737;SDS011;4405;49.272;8.590;2023-12-20T10:24:16;2.50;;;1.50;;
8737;SDS011;4405;49.272;8.590;2023-12-20T10:26:42;3.53;;;1.60;;
8737;SDS011;4405;49.272;8.590;2023-12-20T10:29:09;4.50;;;1.97;;
8737;SDS011;4405;49.272;8.590;2023-12-20T10:31:36;3.43;;;1.70;;
8737;SDS011;4405;49.272;8.590;2023-12-20T10:34:03;1.60;;;1.40;;
8737;SDS011;4405;49.272;8.590;2023-12-20T10:36:30;4.23;;;1.97;;
8737;SDS011;4405;49.272;8.590;2023-12-20T10:38:58;2.13;;;1.60;;
8737;SDS011;4405;49.272;8.590;2023-12-20T10:41:26;2.93;;;1.43;;
8737;SDS011;4405;49.272;8.590;2023-12-20T10:43:54;5.23;;;1.63;;
8737;SDS011;4405;49.272;8.590;2023-12-20T10:46:21;4.10;;;1.60;;
8737;SDS011;4405;49.272;8.590;2023-12-20T10:48:48;6.23;;;1.80;;
8737;SDS011;4405;49.272;8.590;2023-12-20T10:51:18;5.43;;;1.73;;
8737;SDS011;4405;49.272;8.590;2023-12-20T10:53:45;4.33;;;1.80;;
8737;SDS011;4405;49.272;8.590;2023-12-20T10:56:15;5.73;;;2.13;;
8737;SDS011;4405;49.272;8.590;2023-12-20T10:58:42;5.00;;;1.77;;
8737;SDS011;4405;49.272;8.590;2023-12-20T11:01:08;4.80;;;1.73;;
8737;SDS011;4405;49.272;8.590;2023-12-20T11:03:35;3.40;;;1.70;;
8737;SDS011;4405;49.272;8.590;2023-12-20T11:06:03;4.97;;;1.70;;
8737;SDS011;4405;49.272;8.590;2023-12-20T11:08:32;3.50;;;1.80;;
8737;SDS011;4405;49.272;8.590;2023-12-20T11:11:00;3.30;;;1.97;;
8737;SDS011;4405;49.272;8.590;2023-12-20T11:13:30;2.40;;;1.80;;
8737;SDS011;4405;49.272;8.590;2023-12-20T11:15:57;2.80;;;2.00;;
8737;SDS011;4405;49.272;8.590;2023-12-20T11:18:28;5.10;;;1.90;;
8737;SDS011;4405;49.272;8.590;2023-12-20T11:20:54;4.33;;;1.90;;
8737;SDS011;4405;49.272;8.590;2023-12-20T11:23:20;5.57;;;1.87;;
8737;SDS011;4405;49.272;8.590;2023-12-20T11:25:47;4.03;;;1.60;;
8737;SDS011;4405;49.272;8.590;2023-12-20T11:28:14;4.20;;;1.67;;
8737;SDS011;4405;49.272;8.590;2023-12-20T11:30:46;4.67;;;1.87;;
8737;SDS011;4405;49.272;8.590;2023-12-20T11:33:13;2.47;;;1.63;;
8737;SDS011;4405;49.272;8.590;2023-12-20T11:35:40;4.57;;;1.87;;
8737;SDS011;4405;49.272;8.590;2023-12-20T11:38:07;5.43;;;1.70;;
8737;SDS011;4405;49.272;8.590;2023-12-20T11:40:34;4.40;;;1.87;;
8737;SDS011;4405;49.272;8.590;2023-12-20T11:43:00;4.83;;;2.10;;
8737;SDS011;4405;49.272;8.590;2023-12-20T11:45:27;4.40;;;2.13;;
8737;SDS011;4405;49.272;8.590;2023-12-20T11:47:56;3.07;;;1.80;;
8737;SDS011;4405;49.272;8.590;2023-12-20T11:50:22;4.33;;;2.07;;
8737;SDS011;4405;49.272;8.590;2023-12-20T11:52:49;6.00;;;2.20;;
8737;SDS011;4405;49.272;8.590;2023-12-20T11:55:16;4.73;;;2.00;;
8737;SDS011;4405;49.272;8.590;2023-12-20T11:57:43;8.07;;;2.30;;
8737;SDS011;4405;49.272;8.590;2023-12-20T12:00:10;3.17;;;1.90;;
8737;SDS011;4405;49.272;8.590;2023-12-20T12:02:36;9.80;;;2.37;;
8737;SDS011;4405;49.272;8.590;2023-12-20T12:05:04;7.40;;;2.37;;
8737;SDS011;4405;49.272;8.590;2023-12-20T12:07:31;7.60;;;2.10;;
8737;SDS011;4405;49.272;8.590;2023-12-20T12:09:57;3.70;;;2.00;;
8737;SDS011;4405;49.272;8.590;2023-12-20T12:12:24;4.50;;;2.20;;
8737;SDS011;4405;49.272;8.590;2023-12-20T12:14:52;3.73;;;2.37;;
8737;SDS011;4405;49.272;8.590;2023-12-20T12:17:18;8.10;;;2.47;;
8737;SDS011;4405;49.272;8.590;2023-12-20T12:19:45;7.33;;;2.77;;
8737;SDS011;4405;49.272;8.590;2023-12-20T12:22:13;6.60;;;2.47;;
8737;SDS011;4405;49.272;8.590;2023-12-20T12:24:42;5.23;;;2.47;;
8737;SDS011;4405;49.272;8.590;2023-12-20T12:27:08;9.47;;;2.17;;
8737;SDS011;4405;49.272;8.590;2023-12-20T12:29:35;5.60;;;2.20;;
8737;SDS011;4405;49.272;8.590;2023-12-20T12:32:04;9.20;;;2.50;;
8737;SDS011;4405;49.272;8.590;2023-12-20T12:34:31;6.97;;;2.20;;
8737;SDS011;4405;49.272;8.590;2023-12-20T12:36:57;6.57;;;2.37;;
8737;SDS011;4405;49.272;8.590;2023-12-20T12:39:25;4.70;;;2.30;;
8737;SDS011;4405;49.272;8.590;2023-12-20T12:41:51;4.63;;;2.40;;
8737;SDS011;4405;49.272;8.590;2023-12-20T12:44:18;3.73;;;1.67;;
8737;SDS011;4405;49.272;8.590;2023-12-20T12:46:44;3.73;;;2.10;;
8737;SDS011;4405;49.272;8.590;2023-12-20T12:49:11;5.90;;;2.27;;
8737;SDS011;4405;49.272;8.590;2023-12-20T12:51:38;4.87;;;2.37;;
8737;SDS011;4405;49.272;8.590;2023-12-20T12:54:04;7.90;;;2.37;;
8737;SDS011;4405;49.272;8.590;2023-12-20T12:56:32;3.67;;;2.00;;
8737;SDS011;4405;49.272;8.590;2023-12-20T12:58:58;4.87;;;2.10;;
8737;SDS011;4405;49.272;8.590;2023-12-20T13:01:26;5.20;;;2.30;;
8737;SDS011;4405;49.272;8.590;2023-12-20T13:03:53;4.40;;;2.10;;
8737;SDS011;4405;49.272;8.590;2023-12-20T13:06:19;7.27;;;2.40;;
8737;SDS011;4405;49.272;8.590;2023-12-20T13:08:45;5.43;;;2.00;;
8737;SDS011;4405;49.272;8.590;2023-12-20T13:11:12;8.30;;;2.37;;
8737;SDS011;4405;49.272;8.590;2023-12-20T13:13:39;5.13;;;2.37;;
8737;SDS011;4405;49.272;8.590;2023-12-20T13:16:06;7.57;;;2.60;;
8737;SDS011;4405;49.272;8.590;2023-12-20T13:18:32;7.10;;;2.33;;
8737;SDS011;4405;49.272;8.590;2023-12-20T13:20:59;6.00;;;2.13;;
8737;SDS011;4405;49.272;8.590;2023-12-20T13:23:25;4.87;;;2.20;;
8737;SDS011;4405;49.272;8.590;2023-12-20T13:25:51;5.63;;;2.20;;
8737;SDS011;4405;49.272;8.590;2023-12-20T13:28:18;6.17;;;3.20;;
8737;SDS011;4405;49.272;8.590;2023-12-20T13:30:45;11.53;;;4.27;;
8737;SDS011;4405;49.272;8.590;2023-12-20T13:33:12;6.07;;;2.73;;
8737;SDS011;4405;49.272;8.590;2023-12-20T13:35:38;5.00;;;2.30;;
8737;SDS011;4405;49.272;8.590;2023-12-20T13:38:04;5.80;;;2.57;;
8737;SDS011;4405;49.272;8.590;2023-12-20T13:40:31;5.33;;;2.37;;
8737;SDS011;4405;49.272;8.590;2023-12-20T13:42:57;2.83;;;1.90;;
8737;SDS011;4405;49.272;8.590;2023-12-20T13:45:24;6.33;;;2.37;;
8737;SDS011;4405;49.272;8.590;2023-12-20T13:47:52;5.90;;;2.40;;
8737;SDS011;4405;49.272;8.590;2023-12-20T13:50:18;6.63;;;2.50;;
8737;SDS011;4405;49.272;8.590;2023-12-20T13:52:44;6.50;;;2.50;;
8737;SDS011;4405;49.272;8.590;2023-12-20T13:55:11;4.07;;;2.10;;
8737;SDS011;4405;49.272;8.590;2023-12-20T13:57:37;6.60;;;2.30;;
8737;SDS011;4405;49.272;8.590;2023-12-20T14:00:05;5.23;;;2.30;;
8737;SDS011;4405;49.272;8.590;2023-12-20T14:02:37;5.43;;;2.90;;
8737;SDS011;4405;49.272;8.590;2023-12-20T14:05:05;4.90;;;2.93;;
8737;SDS011;4405;49.272;8.590;2023-12-20T14:07:32;5.83;;;2.40;;
8737;SDS011;4405;49.272;8.590;2023-12-20T14:09:58;9.93;;;2.70;;
8737;SDS011;4405;49.272;8.590;2023-12-20T14:12:24;7.90;;;2.50;;
8737;SDS011;4405;49.272;8.590;2023-12-20T14:14:51;7.63;;;2.77;;
8737;SDS011;4405;49.272;8.590;2023-12-20T14:17:17;7.30;;;2.53;;
8737;SDS011;4405;49.272;8.590;2023-12-20T14:19:44;6.03;;;2.37;;
8737;SDS011;4405;49.272;8.590;2023-12-20T14:22:11;5.00;;;2.37;;
8737;SDS011;4405;49.272;8.590;2023-12-20T14:24:41;5.00;;;2.33;;
8737;SDS011;4405;49.272;8.590;2023-12-20T14:27:08;9.97;;;2.30;;
8737;SDS011;4405;49.272;8.590;2023-12-20T14:29:34;2.83;;;2.30;;
8737;SDS011;4405;49.272;8.590;2023-12-20T14:32:02;8.20;;;2.40;;
8737;SDS011;4405;49.272;8.590;2023-12-20T14:34:28;5.50;;;2.13;;
8737;SDS011;4405;49.272;8.590;2023-12-20T14:36:55;5.83;;;2.10;;
8737;SDS011;4405;49.272;8.590;2023-12-20T14:39:22;9.23;;;2.10;;
8737;SDS011;4405;49.272;8.590;2023-12-20T14:41:49;5.77;;;2.20;;
8737;SDS011;4405;49.272;8.590;2023-12-20T14:44:15;5.53;;;2.00;;
8737;SDS011;4405;49.272;8.590;2023-12-20T14:46:42;5.70;;;2.00;;
8737;SDS011;4405;49.272;8.590;2023-12-20T14:49:08;4.97;;;2.00;;
8737;SDS011;4405;49.272;8.590;2023-12-20T14:51:34;6.20;;;2.47;;
8737;SDS011;4405;49.272;8.590;2023-12-20T14:54:02;4.40;;;1.70;;
8737;SDS011;4405;49.272;8.590;2023-12-20T14:56:30;4.93;;;1.83;;
8737;SDS011;4405;49.272;8.590;2023-12-20T14:58:56;2.63;;;1.70;;
8737;SDS011;4405;49.272;8.590;2023-12-20T15:01:22;7.93;;;1.70;;
8737;SDS011;4405;49.272;8.590;2023-12-20T15:03:49;6.30;;;1.67;;
8737;SDS011;4405;49.272;8.590;2023-12-20T15:06:15;7.97;;;2.07;;
8737;SDS011;4405;49.272;8.590;2023-12-20T15:08:41;8.40;;;2.00;;
8737;SDS011;4405;49.272;8.590;2023-12-20T15:11:08;3.47;;;1.70;;